Rize — 9HA2781 — position and weather

sailwx.info

Track history (hours):
 
Tides and Currents Weather Stations Pressure Air Temp Water Temp Dewpoint Dewpoint Depression Visibility Wind Speed Wind Dir Waves Ship Positions

Rize

Last reported at 2016-May-22 01:12 UTC. Time now 2016-May-24 11:55 UTC.
Position N 49°36' W 003°58'.

Length 229 m; draft 13.8 m.

Type: Cargo ship. MMSI: 215677000.

Date/timePositionNaut miles runAvg speedWind from/ knotsBaromVisibWave heightAir tempDewpointWater temp
2016-May-22 01:12N 49°36' W 003°58'8 9.9
2016-May-22 00:25N 49°40' W 003°48'910.1
2016-May-21 23:33N 49°45' W 003°36'10 9.6
2016-May-21 22:33N 49°49' W 003°24'9 8.7
2016-May-21 21:33N 49°54' W 003°12'8 7.6
2016-May-21 20:33N 49°57' W 003°02'7 6.6
2016-May-21 19:33N 49°59' W 002°52'7 6.5
2016-May-21 18:33N 50°01' W 002°42'92 9.2
2016-May-21 08:33N 50°26' W 000°24'7 6.7
2016-May-21 07:33N 50°28' W 000°14'8 7.3
2016-May-21 06:31N 50°30' W 000°02'8 8.4
2016-May-21 05:33N 50°32' E 000°10'9 9.4
2016-May-21 04:33N 50°35' E 000°24'10 9.9
2016-May-21 03:33N 50°39' E 000°39'28 8.6
2016-May-21 00:21N 50°57' E 001°12'5 6.7
2016-May-20 23:33N 50°60' E 001°19'7 6.5
2016-May-20 22:33N 51°04' E 001°27'8 8.0
2016-May-20 21:33N 51°09' E 001°37'9 9.3
2016-May-20 20:33N 51°16' E 001°47'1110.6
2016-May-20 19:33N 51°25' E 001°55'1010.0
2016-May-20 18:33N 51°33' E 002°05'9 9.3
2016-May-20 17:33N 51°40' E 002°14'9 8.5
2016-May-20 16:31N 51°47' E 002°24'134 7.9
2016-May-19 23:26N 53°34' E 004°38'17 9.0
2016-May-19 21:33N 53°50' E 004°48'9 8.8
2016-May-19 20:33N 53°58' E 004°54'9 8.6
2016-May-19 19:33N 54°06' E 004°59'9 8.6
2016-May-19 18:33N 54°14' E 005°04'13 8.6
2016-May-19 17:03N 54°26' E 005°11'4 8.5
2016-May-19 16:32N 54°30' E 005°15'259 8.5
2016-May-18 10:07N 57°50' E 010°10'6 7.9
2016-May-18 09:19N 57°52' E 010°22'6 7.7
2016-May-18 08:33N 57°53' E 010°33'6 6.3
2016-May-18 07:33N 57°50' E 010°44'9 9.3
2016-May-18 06:33N 57°44' E 010°56'8 8.5
2016-May-18 05:33N 57°38' E 011°08'8 7.9
2016-May-18 04:33N 57°32' E 011°18'7 7.4
2016-May-18 03:33N 57°27' E 011°27'8 8.0
2016-May-18 02:33N 57°19' E 011°32'8 7.8
2016-May-18 01:33N 57°12' E 011°37'8 8.0
2016-May-18 00:33N 57°04' E 011°42'8 8.1
2016-May-17 23:33N 56°57' E 011°47'8 8.1
2016-May-17 22:33N 56°49' E 011°52'7 7.0
2016-May-17 21:33N 56°42' E 011°49'24 7.8
2016-May-17 18:31N 56°24' E 011°21'10 7.1
2016-May-17 17:08N 56°19' E 011°05'19 9.8
2016-May-17 15:14N 56°00' E 011°04'39 8.3
2016-May-17 10:33N 55°21' E 011°02'9 8.6
2016-May-17 09:33N 55°13' E 011°06'9 9.0
2016-May-17 08:33N 55°05' E 010°59'9 8.9
2016-May-17 07:33N 54°57' E 010°54'9 9.4
2016-May-17 06:33N 54°47' E 010°50'7 7.3
2016-May-17 05:33N 54°40' E 010°49'7 7.2
2016-May-17 04:33N 54°36' E 010°59'7 6.7
2016-May-17 03:33N 54°36' E 011°11'7 7.0
2016-May-17 02:33N 54°33' E 011°22'7 6.8
2016-May-17 01:33N 54°30' E 011°32'7 6.8
2016-May-17 00:33N 54°27' E 011°43'8 7.7
2016-May-16 23:33N 54°26' E 011°56'7 7.3
2016-May-16 22:33N 54°26' E 012°08'7 7.2
2016-May-16 21:32N 54°33' E 012°14'14 6.8
2016-May-16 19:33N 54°42' E 012°31'33 7.7
2016-May-16 15:16N 54°56' E 013°23'6 8.5
2016-May-16 14:33N 54°58' E 013°34'9 8.1
2016-May-16 13:29N 55°01' E 013°48'7 7.9
2016-May-16 12:33N 55°03' E 014°00'8 7.9
2016-May-16 11:33N 55°08' E 014°10'8 7.9
2016-May-16 10:33N 55°14' E 014°19'9 8.6
2016-May-16 09:33N 55°21' E 014°28'9 8.5
2016-May-16 08:33N 55°27' E 014°39'8 8.4
2016-May-16 07:33N 55°31' E 014°53'8 8.2
2016-May-16 06:33N 55°34' E 015°06'8 8.3
2016-May-16 05:33N 55°37' E 015°19'9 8.6
2016-May-16 04:33N 55°41' E 015°33'337 8.6
2016-May-14 13:26N 59°35' E 023°05'8 9.3
2016-May-14 12:33N 59°38' E 023°21'9 9.5
2016-May-14 11:33N 59°40' E 023°39'10 9.4
2016-May-14 10:28N 59°43' E 023°58'8 9.3
2016-May-14 09:33N 59°46' E 024°14'47 9.3
2016-May-14 04:26N 59°55' E 025°47'8 9.3
2016-May-14 03:33N 59°57' E 026°02'9 9.3
2016-May-14 02:33N 59°60' E 026°21'9 9.0
2016-May-14 01:33N 60°01' E 026°38'9 9.1
2016-May-14 00:33N 59°60' E 026°56'9 8.7
2016-May-13 23:33N 60°02' E 027°13'9 9.1
2016-May-13 22:33N 60°07' E 027°29'9 9.2
2016-May-13 21:33N 60°11' E 027°45'9 8.9
2016-May-13 20:33N 60°10' E 028°03'9 8.9
2016-May-13 19:33N 60°07' E 028°19'8 8.4
2016-May-13 18:33N 60°03' E 028°35'7 7.3
2016-May-13 17:33N 59°56' E 028°35'10 9.8
2016-May-13 16:33N 59°48' E 028°25'6 6.1
2016-May-13 15:33N 59°41' E 028°25'0 0.2
2016-May-13 14:33N 59°41' E 028°25'0 0.0
2016-May-13 13:22N 59°41' E 028°25'0 0.0
2016-May-13 12:34N 59°41' E 028°25'0 0.0
2016-May-13 11:25N 59°41' E 028°25'0 0.0
2016-May-13 10:25N 59°41' E 028°25'0 0.0
2016-May-13 09:09N 59°41' E 028°25'0 0.0
2016-May-13 08:27N 59°41' E 028°25'0 0.0
2016-May-13 07:27N 59°41' E 028°25'0 0.0
2016-May-13 06:31N 59°41' E 028°25'0 0.0
2016-May-13 05:27N 59°41' E 028°25'0 0.0
2016-May-13 04:30N 59°41' E 028°25'0 0.0
2016-May-13 03:30N 59°41' E 028°25'0 0.0
2016-May-13 02:33N 59°41' E 028°25'0 0.0
2016-May-13 01:33N 59°41' E 028°25'0 0.0
2016-May-13 00:33N 59°41' E 028°25'0 0.0
2016-May-12 23:33N 59°41' E 028°25'0 0.0
2016-May-12 22:33N 59°41' E 028°25'0 0.0
2016-May-12 21:24N 59°41' E 028°25'0 0.0
2016-May-12 20:24N 59°41' E 028°25'0 0.0
2016-May-12 19:24N 59°41' E 028°25'0 0.0
2016-May-12 18:24N 59°41' E 028°25'0 0.0
2016-May-12 17:12N 59°41' E 028°25'0 0.0
2016-May-12 16:27N 59°41' E 028°25'0 0.0
2016-May-12 15:27N 59°41' E 028°25'0 0.0
2016-May-12 14:30N 59°41' E 028°25'0 0.0
2016-May-12 13:30N 59°41' E 028°25'0 0.0
2016-May-12 12:33N 59°41' E 028°25'0 0.0
2016-May-12 11:33N 59°41' E 028°25'0 0.0
2016-May-12 10:33N 59°41' E 028°25'0 0.0
2016-May-12 09:33N 59°41' E 028°25'0 0.0
2016-May-12 08:33N 59°41' E 028°25'0 0.0
2016-May-12 07:33N 59°41' E 028°25'0 0.0
2016-May-12 06:09N 59°41' E 028°25'0 0.0
2016-May-12 05:24N 59°41' E 028°25'0 0.0
2016-May-12 04:24N 59°41' E 028°25'0 0.0
2016-May-12 03:27N 59°41' E 028°25'  
Track history (hours):
 
Tides and Currents Weather Stations Pressure Air Temp Water Temp Dewpoint Dewpoint Depression Visibility Wind Speed Wind Dir Waves Ship Positions

Rize

Last reported at 2016-May-22 01:12 UTC. Time now 2016-May-24 11:55 UTC.
Position N 49°36' W 003°58'.

Length 229 m; draft 13.8 m.

Type: Cargo ship. MMSI: 215677000.

Date/timePositionNaut miles runAvg speedWind from/ knotsBaromVisibWave heightAir tempDewpointWater temp
2016-May-22 01:12N 49°36' W 003°58'8 9.9
2016-May-22 00:25N 49°40' W 003°48'910.1
2016-May-21 23:33N 49°45' W 003°36'10 9.6
2016-May-21 22:33N 49°49' W 003°24'9 8.7
2016-May-21 21:33N 49°54' W 003°12'8 7.6
2016-May-21 20:33N 49°57' W 003°02'7 6.6
2016-May-21 19:33N 49°59' W 002°52'7 6.5
2016-May-21 18:33N 50°01' W 002°42'92 9.2
2016-May-21 08:33N 50°26' W 000°24'7 6.7
2016-May-21 07:33N 50°28' W 000°14'8 7.3
2016-May-21 06:31N 50°30' W 000°02'8 8.4
2016-May-21 05:33N 50°32' E 000°10'9 9.4
2016-May-21 04:33N 50°35' E 000°24'10 9.9
2016-May-21 03:33N 50°39' E 000°39'28 8.6
2016-May-21 00:21N 50°57' E 001°12'5 6.7
2016-May-20 23:33N 50°60' E 001°19'7 6.5
2016-May-20 22:33N 51°04' E 001°27'8 8.0
2016-May-20 21:33N 51°09' E 001°37'9 9.3
2016-May-20 20:33N 51°16' E 001°47'1110.6
2016-May-20 19:33N 51°25' E 001°55'1010.0
2016-May-20 18:33N 51°33' E 002°05'9 9.3
2016-May-20 17:33N 51°40' E 002°14'9 8.5
2016-May-20 16:31N 51°47' E 002°24'134 7.9
2016-May-19 23:26N 53°34' E 004°38'17 9.0
2016-May-19 21:33N 53°50' E 004°48'9 8.8
2016-May-19 20:33N 53°58' E 004°54'9 8.6
2016-May-19 19:33N 54°06' E 004°59'9 8.6
2016-May-19 18:33N 54°14' E 005°04'13 8.6
2016-May-19 17:03N 54°26' E 005°11'4 8.5
2016-May-19 16:32N 54°30' E 005°15'259 8.5
2016-May-18 10:07N 57°50' E 010°10'6 7.9
2016-May-18 09:19N 57°52' E 010°22'6 7.7
2016-May-18 08:33N 57°53' E 010°33'6 6.3
2016-May-18 07:33N 57°50' E 010°44'9 9.3
2016-May-18 06:33N 57°44' E 010°56'8 8.5
2016-May-18 05:33N 57°38' E 011°08'8 7.9
2016-May-18 04:33N 57°32' E 011°18'7 7.4
2016-May-18 03:33N 57°27' E 011°27'8 8.0
2016-May-18 02:33N 57°19' E 011°32'8 7.8
2016-May-18 01:33N 57°12' E 011°37'8 8.0
2016-May-18 00:33N 57°04' E 011°42'8 8.1
2016-May-17 23:33N 56°57' E 011°47'8 8.1
2016-May-17 22:33N 56°49' E 011°52'7 7.0
2016-May-17 21:33N 56°42' E 011°49'24 7.8
2016-May-17 18:31N 56°24' E 011°21'10 7.1
2016-May-17 17:08N 56°19' E 011°05'19 9.8
2016-May-17 15:14N 56°00' E 011°04'39 8.3
2016-May-17 10:33N 55°21' E 011°02'9 8.6
2016-May-17 09:33N 55°13' E 011°06'9 9.0
2016-May-17 08:33N 55°05' E 010°59'9 8.9
2016-May-17 07:33N 54°57' E 010°54'9 9.4
2016-May-17 06:33N 54°47' E 010°50'7 7.3
2016-May-17 05:33N 54°40' E 010°49'7 7.2
2016-May-17 04:33N 54°36' E 010°59'7 6.7
2016-May-17 03:33N 54°36' E 011°11'7 7.0
2016-May-17 02:33N 54°33' E 011°22'7 6.8
2016-May-17 01:33N 54°30' E 011°32'7 6.8
2016-May-17 00:33N 54°27' E 011°43'8 7.7
2016-May-16 23:33N 54°26' E 011°56'7 7.3
2016-May-16 22:33N 54°26' E 012°08'7 7.2
2016-May-16 21:32N 54°33' E 012°14'14 6.8
2016-May-16 19:33N 54°42' E 012°31'33 7.7
2016-May-16 15:16N 54°56' E 013°23'6 8.5
2016-May-16 14:33N 54°58' E 013°34'9 8.1
2016-May-16 13:29N 55°01' E 013°48'7 7.9
2016-May-16 12:33N 55°03' E 014°00'8 7.9
2016-May-16 11:33N 55°08' E 014°10'8 7.9
2016-May-16 10:33N 55°14' E 014°19'9 8.6
2016-May-16 09:33N 55°21' E 014°28'9 8.5
2016-May-16 08:33N 55°27' E 014°39'8 8.4
2016-May-16 07:33N 55°31' E 014°53'8 8.2
2016-May-16 06:33N 55°34' E 015°06'8 8.3
2016-May-16 05:33N 55°37' E 015°19'9 8.6
2016-May-16 04:33N 55°41' E 015°33'337 8.6
2016-May-14 13:26N 59°35' E 023°05'8 9.3
2016-May-14 12:33N 59°38' E 023°21'9 9.5
2016-May-14 11:33N 59°40' E 023°39'10 9.4
2016-May-14 10:28N 59°43' E 023°58'8 9.3
2016-May-14 09:33N 59°46' E 024°14'47 9.3
2016-May-14 04:26N 59°55' E 025°47'8 9.3
2016-May-14 03:33N 59°57' E 026°02'9 9.3
2016-May-14 02:33N 59°60' E 026°21'9 9.0
2016-May-14 01:33N 60°01' E 026°38'9 9.1
2016-May-14 00:33N 59°60' E 026°56'9 8.7
2016-May-13 23:33N 60°02' E 027°13'9 9.1
2016-May-13 22:33N 60°07' E 027°29'9 9.2
2016-May-13 21:33N 60°11' E 027°45'9 8.9
2016-May-13 20:33N 60°10' E 028°03'9 8.9
2016-May-13 19:33N 60°07' E 028°19'8 8.4
2016-May-13 18:33N 60°03' E 028°35'7 7.3
2016-May-13 17:33N 59°56' E 028°35'10 9.8
2016-May-13 16:33N 59°48' E 028°25'6 6.1
2016-May-13 15:33N 59°41' E 028°25'0 0.2
2016-May-13 14:33N 59°41' E 028°25'0 0.0
2016-May-13 13:22N 59°41' E 028°25'0 0.0
2016-May-13 12:34N 59°41' E 028°25'0 0.0
2016-May-13 11:25N 59°41' E 028°25'0 0.0
2016-May-13 10:25N 59°41' E 028°25'0 0.0
2016-May-13 09:09N 59°41' E 028°25'0 0.0
2016-May-13 08:27N 59°41' E 028°25'0 0.0
2016-May-13 07:27N 59°41' E 028°25'0 0.0
2016-May-13 06:31N 59°41' E 028°25'0 0.0
2016-May-13 05:27N 59°41' E 028°25'0 0.0
2016-May-13 04:30N 59°41' E 028°25'0 0.0
2016-May-13 03:30N 59°41' E 028°25'0 0.0
2016-May-13 02:33N 59°41' E 028°25'0 0.0
2016-May-13 01:33N 59°41' E 028°25'0 0.0
2016-May-13 00:33N 59°41' E 028°25'0 0.0
2016-May-12 23:33N 59°41' E 028°25'0 0.0
2016-May-12 22:33N 59°41' E 028°25'0 0.0
2016-May-12 21:24N 59°41' E 028°25'0 0.0
2016-May-12 20:24N 59°41' E 028°25'0 0.0
2016-May-12 19:24N 59°41' E 028°25'0 0.0
2016-May-12 18:24N 59°41' E 028°25'0 0.0
2016-May-12 17:12N 59°41' E 028°25'0 0.0
2016-May-12 16:27N 59°41' E 028°25'0 0.0
2016-May-12 15:27N 59°41' E 028°25'0 0.0
2016-May-12 14:30N 59°41' E 028°25'0 0.0
2016-May-12 13:30N 59°41' E 028°25'0 0.0
2016-May-12 12:33N 59°41' E 028°25'0 0.0
2016-May-12 11:33N 59°41' E 028°25'0 0.0
2016-May-12 10:33N 59°41' E 028°25'0 0.0
2016-May-12 09:33N 59°41' E 028°25'0 0.0
2016-May-12 08:33N 59°41' E 028°25'0 0.0
2016-May-12 07:33N 59°41' E 028°25'0 0.0
2016-May-12 06:09N 59°41' E 028°25'0 0.0
2016-May-12 05:24N 59°41' E 028°25'0 0.0
2016-May-12 04:24N 59°41' E 028°25'0 0.0
2016-May-12 03:27N 59°41' E 028°25'  

Dump ship's entire track history